Gulf — V2BB5 — position and weather

sailwx.info

Track history (hours):
 
Tides and Currents Weather Stations Pressure Air Temp Water Temp Dewpoint Dewpoint Depression Visibility Wind Speed Wind Dir Waves Ship Positions

Gulf

Last reported at 2017-Feb-27 06:17 UTC. Time now 2017-Feb-27 11:40 UTC.
Position N 35°51' E 014°39'.

Length 96 m; draft 5.1 m.

Type: Cargo ship. MMSI: 304320000.

Date/timePositionNaut miles runAvg speedWind from/ knotsBaromVisibWave heightAir tempDewpointWater temp
2017-Feb-27 06:17N 35°51' E 014°39'0 0.0
2017-Feb-27 03:20N 35°51' E 014°39'0 0.0
2017-Feb-27 02:11N 35°51' E 014°39'0 0.0
2017-Feb-27 01:29N 35°51' E 014°39'0 0.0
2017-Feb-27 00:32N 35°51' E 014°40'0 0.0
2017-Feb-26 23:29N 35°51' E 014°40'1 1.3
2017-Feb-26 22:33N 35°50' E 014°41'7 7.3
2017-Feb-26 21:33N 35°56' E 014°35'9 9.4
2017-Feb-26 20:33N 36°03' E 014°27'9 9.3
2017-Feb-26 19:33N 36°08' E 014°17'8 8.4
2017-Feb-26 18:33N 36°11' E 014°08'9 8.7
2017-Feb-26 17:33N 36°14' E 013°58'9 8.6
2017-Feb-26 16:33N 36°18' E 013°48'284 9.0
2017-Feb-25 09:08N 38°41' E 008°40'  
Track history (hours):
 
Tides and Currents Weather Stations Pressure Air Temp Water Temp Dewpoint Dewpoint Depression Visibility Wind Speed Wind Dir Waves Ship Positions

Gulf

Last reported at 2017-Feb-27 06:17 UTC. Time now 2017-Feb-27 11:40 UTC.
Position N 35°51' E 014°39'.

Length 96 m; draft 5.1 m.

Type: Cargo ship. MMSI: 304320000.

Date/timePositionNaut miles runAvg speedWind from/ knotsBaromVisibWave heightAir tempDewpointWater temp
2017-Feb-27 06:17N 35°51' E 014°39'0 0.0
2017-Feb-27 03:20N 35°51' E 014°39'0 0.0
2017-Feb-27 02:11N 35°51' E 014°39'0 0.0
2017-Feb-27 01:29N 35°51' E 014°39'0 0.0
2017-Feb-27 00:32N 35°51' E 014°40'0 0.0
2017-Feb-26 23:29N 35°51' E 014°40'1 1.3
2017-Feb-26 22:33N 35°50' E 014°41'7 7.3
2017-Feb-26 21:33N 35°56' E 014°35'9 9.4
2017-Feb-26 20:33N 36°03' E 014°27'9 9.3
2017-Feb-26 19:33N 36°08' E 014°17'8 8.4
2017-Feb-26 18:33N 36°11' E 014°08'9 8.7
2017-Feb-26 17:33N 36°14' E 013°58'9 8.6
2017-Feb-26 16:33N 36°18' E 013°48'284 9.0
2017-Feb-25 09:08N 38°41' E 008°40'  

Dump ship's entire track history